Time;durP1;ratioP1;P1;durP2;ratioP2;P2;SDS_P1;SDS_P2;PMS_P1;PMS_P2;Temp;Humidity;BMP_temperature;BMP_pressure;BME280_temperature;BME280_humidity;BME280_pressure;Samples;Min_cycle;Max_cycle;Signal;HPM_P1;HPM_P2
2021/10/02 00:31:00;;;;;;;6.45;4.22;;;;;;;11.78;87.51;100464.22;20989692;28;20066;-72
2021/10/02 00:33:36;;;;;;;7.18;3.15;;;;;;;12.03;83.81;100472.53;20986865;28;20044;-71
2021/10/02 00:54:00;;;;;;;6.28;3.20;;;;;;;12.11;84.56;100480.22;20985689;28;20461;-71
2021/10/02 01:04:17;;;;;;;6.40;3.22;;;;;;;12.09;86.57;100479.41;20984862;28;20061;-72
2021/10/02 01:14:40;;;;;;;7.60;3.00;;;;;;;12.02;86.99;100471.63;20984762;28;20044;-70
2021/10/02 01:25:07;;;;;;;6.47;3.10;;;;;;;12.02;86.75;100461.16;20966841;28;20406;-71
2021/10/02 01:55:54;;;;;;;6.25;3.30;;;;;;;11.72;88.89;100451.25;20984462;28;20563;-71
2021/10/02 02:05:56;;;;;;;6.00;3.30;;;;;;;11.81;88.53;100436.19;20993184;28;20049;-71
2021/10/02 02:16:00;;;;;;;7.25;3.72;;;;;;;11.78;88.88;100430.13;20999863;28;20306;-72
2021/10/02 02:26:06;;;;;;;8.27;4.05;;;;;;;11.80;88.59;100430.97;20991200;28;20044;-71
2021/10/02 02:36:08;;;;;;;13.50;5.07;;;;;;;11.84;89.51;100419.56;20995534;28;20551;-71
2021/10/02 02:46:13;;;;;;;9.45;5.10;;;;;;;11.90;89.46;100424.69;20995688;28;20055;-71
2021/10/02 02:56:21;;;;;;;8.27;4.68;;;;;;;11.93;89.27;100416.75;20995291;28;20052;-71
2021/10/02 03:06:24;;;;;;;10.00;4.95;;;;;;;12.00;88.04;100405.22;20976272;28;20052;-71
2021/10/02 03:16:28;;;;;;;11.43;4.45;;;;;;;12.04;87.83;100404.25;20993858;28;20110;-71
2021/10/02 03:26:32;;;;;;;8.17;4.37;;;;;;;12.02;88.04;100397.31;20993129;28;20076;-71
2021/10/02 03:36:34;;;;;;;12.40;4.60;;;;;;;12.03;87.49;100392.03;20992136;28;20041;-72
2021/10/02 03:46:36;;;;;;;7.05;3.80;;;;;;;12.00;87.65;100388.63;20990345;28;20044;-71
2021/10/02 03:56:38;;;;;;;8.07;4.10;;;;;;;12.00;87.67;100394.72;20974087;28;20533;-71
2021/10/02 04:06:40;;;;;;;10.60;4.43;;;;;;;12.00;87.53;100399.09;20990160;28;20048;-70
2021/10/02 04:16:42;;;;;;;6.20;3.85;;;;;;;12.01;87.58;100388.56;20990075;28;20052;-71
2021/10/02 04:26:44;;;;;;;9.32;4.50;;;;;;;12.04;87.26;100378.00;20989367;28;20044;-71
2021/10/02 04:36:46;;;;;;;6.70;3.85;;;;;;;11.95;87.29;100353.75;20987862;28;20067;-71
2021/10/02 04:46:48;;;;;;;8.63;4.00;;;;;;;11.74;87.36;100358.53;20986931;28;20099;-72
2021/10/02 04:56:50;;;;;;;9.35;4.50;;;;;;;11.62;87.66;100360.53;20987717;28;20045;-72
2021/10/02 05:06:51;;;;;;;7.78;4.50;;;;;;;11.53;88.39;100361.56;20986457;28;20413;-70
2021/10/02 05:16:53;;;;;;;8.95;4.55;;;;;;;11.46;88.71;100370.47;20985881;28;20044;-72
2021/10/02 05:26:55;;;;;;;8.00;4.43;;;;;;;11.27;89.59;100386.56;20985791;28;20098;-72
2021/10/02 05:36:58;;;;;;;8.30;4.65;;;;;;;11.04;91.04;100368.63;20984783;28;20460;-71
2021/10/02 05:47:00;;;;;;;9.07;4.60;;;;;;;10.95;90.26;100374.03;20982089;28;20048;-71
2021/10/02 05:57:03;;;;;;;8.13;4.75;;;;;;;10.97;90.23;100367.03;20983362;28;20137;-70
2021/10/02 06:07:05;;;;;;;8.40;4.60;;;;;;;11.01;90.70;100373.91;20998973;28;20516;-72
2021/10/02 06:17:06;;;;;;;9.50;4.80;;;;;;;11.08;90.21;100371.19;20998563;28;20047;-72
2021/10/02 06:27:08;;;;;;;11.00;5.28;;;;;;;11.22;90.66;100369.19;20997704;28;20048;-70
2021/10/02 06:37:10;;;;;;;10.88;5.05;;;;;;;11.30;90.11;100390.84;20995742;28;20048;-70
2021/10/02 06:47:11;;;;;;;8.32;5.28;;;;;;;11.36;90.11;100374.19;20995719;28;20041;-71
2021/10/02 06:57:13;;;;;;;10.05;5.22;;;;;;;11.50;89.94;100372.16;21004345;28;20056;-70
2021/10/02 07:07:16;;;;;;;11.27;5.40;;;;;;;11.84;89.28;100367.09;21027926;28;20405;-70
2021/10/02 07:17:17;;;;;;;12.23;5.90;;;;;;;12.24;87.70;100371.44;21018790;28;20053;-70
2021/10/02 07:27:18;;;;;;;15.95;8.82;;;;;;;12.47;86.71;100353.41;21067602;28;20440;-70
2021/10/02 07:37:20;;;;;;;13.50;7.55;;;;;;;12.78;85.85;100355.25;21062294;28;20045;-70
2021/10/02 07:47:23;;;;;;;13.73;8.15;;;;;;;13.12;84.37;100368.38;20993734;28;20052;-69
2021/10/02 07:57:25;;;;;;;13.57;7.28;;;;;;;13.58;82.76;100354.00;20992069;28;20041;-71
2021/10/02 08:07:30;;;;;;;11.85;6.57;;;;;;;13.91;81.64;100349.50;20991330;28;20040;-71
2021/10/02 08:17:35;;;;;;;14.70;7.30;;;;;;;14.25;80.99;100349.31;21055635;28;20105;-70
2021/10/02 08:27:37;;;;;;;10.55;5.63;;;;;;;14.65;78.69;100345.41;21073916;28;20101;-72
2021/10/02 08:37:39;;;;;;;11.27;4.97;;;;;;;15.05;75.46;100313.28;21072688;28;20041;-71
2021/10/02 08:47:44;;;;;;;8.00;4.90;;;;;;;15.43;72.70;100315.44;21070044;28;20075;-70
2021/10/02 08:57:48;;;;;;;8.82;3.85;;;;;;;15.76;69.65;100310.69;21071921;28;20051;-70
2021/10/02 09:07:53;;;;;;;10.43;4.00;;;;;;;16.17;67.77;100315.22;21069974;28;20039;-70
2021/10/02 09:17:56;;;;;;;7.50;3.70;;;;;;;16.58;66.63;100273.03;21001451;28;20044;-71
2021/10/02 09:28:08;;;;;;;8.45;3.45;;;;;;;17.16;64.91;100259.06;20986355;28;20158;-70
2021/10/02 09:38:12;;;;;;;8.32;3.40;;;;;;;17.44;62.74;100240.16;20984445;28;20059;-71
2021/10/02 09:48:18;;;;;;;10.45;3.80;;;;;;;17.59;63.30;100225.34;20986368;28;20049;-70
2021/10/02 09:58:32;;;;;;;10.70;3.20;;;;;;;18.33;61.06;100207.56;20966954;28;20478;-70
2021/10/02 10:08:34;;;;;;;7.72;3.30;;;;;;;18.40;59.69;100202.81;20984146;28;20076;-70
2021/10/02 10:18:40;;;;;;;8.38;2.20;;;;;;;18.62;57.22;100187.50;21058058;28;20417;-70
2021/10/02 10:28:48;;;;;;;5.18;2.17;;;;;;;18.75;56.15;100176.28;21068238;28;20048;-70
2021/10/02 10:38:51;;;;;;;7.80;2.30;;;;;;;18.90;55.98;100171.00;21038173;28;20106;-71
2021/10/02 10:48:54;;;;;;;5.28;2.13;;;;;;;19.11;56.48;100153.06;20992876;28;20484;-71
2021/10/02 10:58:59;;;;;;;5.22;2.03;;;;;;;19.60;52.09;100129.13;20980083;28;20048;-71
2021/10/02 11:09:07;;;;;;;5.00;2.03;;;;;;;19.47;51.41;100112.97;20995646;28;20094;-71
2021/10/02 11:19:42;;;;;;;4.20;2.05;;;;;;;19.68;50.45;100105.59;21056616;28;20414;-71
2021/10/02 11:29:45;;;;;;;5.53;2.40;;;;;;;19.85;50.17;100082.53;21078791;28;20044;-72
2021/10/02 11:39:47;;;;;;;4.47;2.15;;;;;;;20.11;49.96;100055.22;21077177;28;20048;-73
2021/10/02 11:50:07;;;;;;;3.70;1.70;;;;;;;20.06;50.15;100036.03;21088207;28;20044;-72
2021/10/02 12:00:09;;;;;;;7.88;2.30;;;;;;;19.98;48.32;100019.72;21085270;28;20040;-71
2021/10/02 12:10:11;;;;;;;4.90;2.00;;;;;;;19.97;48.48;100002.06;21067637;28;20048;-71
2021/10/02 12:20:13;;;;;;;5.75;2.05;;;;;;;19.95;50.19;99991.53;20990331;28;20056;-71
2021/10/02 12:30:15;;;;;;;6.13;2.28;;;;;;;20.27;50.26;99985.19;20989173;28;20053;-70
2021/10/02 12:40:17;;;;;;;4.95;1.73;;;;;;;20.53;46.76;99964.94;20988299;28;20067;-71
2021/10/02 12:50:28;;;;;;;4.93;2.17;;;;;;;20.43;47.62;99941.56;20987809;28;20694;-71
2021/10/02 13:00:32;;;;;;;5.45;2.17;;;;;;;20.61;46.57;99939.56;20986816;28;20425;-71
2021/10/02 13:10:37;;;;;;;4.07;1.98;;;;;;;20.65;46.12;99925.13;20993024;28;20050;-71
2021/10/02 13:20:42;;;;;;;4.05;2.05;;;;;;;20.59;47.01;99912.19;21052315;28;20425;-71
2021/10/02 13:30:43;;;;;;;4.30;2.20;;;;;;;20.81;44.48;99894.84;21069539;28;20044;-70
2021/10/02 13:40:53;;;;;;;4.47;1.88;;;;;;;21.08;44.94;99873.50;21068589;28;20048;-70
2021/10/02 13:50:59;;;;;;;4.07;1.90;;;;;;;20.99;45.95;99835.06;21051393;28;20489;-71
2021/10/02 14:01:03;;;;;;;5.28;2.00;;;;;;;21.14;45.80;99818.06;21067002;28;20450;-72
2021/10/02 14:11:05;;;;;;;6.20;2.20;;;;;;;20.95;46.77;99781.19;21055822;28;20102;-72
2021/10/02 14:21:06;;;;;;;5.07;2.35;;;;;;;20.89;47.67;99794.94;20986806;28;20490;-73
2021/10/02 14:31:08;;;;;;;6.43;2.60;;;;;;;20.53;49.73;99784.94;20998170;28;20048;-72
2021/10/02 14:41:09;;;;;;;5.70;2.90;;;;;;;20.41;50.41;99769.75;20996811;28;20512;-73
2021/10/02 14:51:11;;;;;;;6.60;2.75;;;;;;;20.36;50.31;99746.16;20997030;28;20041;-72
2021/10/02 15:01:14;;;;;;;6.03;3.17;;;;;;;20.32;50.94;99728.69;20995138;28;20053;-72
2021/10/02 15:11:17;;;;;;;6.68;3.28;;;;;;;20.33;51.85;99726.91;20990481;28;20051;-72
2021/10/02 15:21:20;;;;;;;6.70;3.08;;;;;;;20.12;52.95;99706.09;21078820;28;20157;-72
2021/10/02 15:31:23;;;;;;;5.50;2.90;;;;;;;20.07;53.28;99697.56;21076482;28;20048;-71
2021/10/02 15:41:25;;;;;;;5.72;2.83;;;;;;;20.02;54.05;99669.59;21077048;28;20105;-72
2021/10/02 15:51:31;;;;;;;5.30;2.60;;;;;;;19.86;53.15;99651.16;21065986;28;20125;-72
2021/10/02 16:01:34;;;;;;;6.75;2.83;;;;;;;19.64;53.45;99663.22;20995497;28;20122;-72
2021/10/02 16:11:41;;;;;;;;;;;;;;;19.44;56.81;99645.00;21007987;28;20048;-72
2021/10/02 16:21:42;;;;;;;;;;;;;;;19.17;59.52;99605.16;21095504;28;19920;-72
2021/10/02 16:31:44;;;;;;;8.77;4.55;;;;;;;18.84;60.21;99600.19;21081911;28;19923;-71
2021/10/02 16:41:46;;;;;;;6.63;3.50;;;;;;;18.53;61.71;99583.47;21071781;28;20464;-71
2021/10/02 16:51:48;;;;;;;10.07;5.38;;;;;;;18.04;68.39;99586.47;21071388;28;20047;-71
2021/10/02 17:01:50;;;;;;;7.95;5.18;;;;;;;17.58;69.51;99573.25;21070217;28;20055;-71
2021/10/02 17:11:52;;;;;;;13.55;7.60;;;;;;;17.20;71.21;99572.78;21052399;28;20075;-71
2021/10/02 17:21:54;;;;;;;15.30;5.90;;;;;;;16.99;73.01;99566.03;20986440;28;20053;-71
2021/10/02 17:31:57;;;;;;;7.70;4.57;;;;;;;16.77;74.62;99563.69;20985101;28;20529;-71
2021/10/02 17:41:58;;;;;;;18.50;8.23;;;;;;;16.54;75.15;99563.13;20985695;28;20429;-71
2021/10/02 17:52:00;;;;;;;9.63;5.18;;;;;;;16.19;76.89;99566.78;20978891;28;20079;-71
2021/10/02 18:02:03;;;;;;;8.60;4.80;;;;;;;16.08;77.68;99570.81;20999185;28;20048;-70
2021/10/02 18:12:05;;;;;;;7.38;4.35;;;;;;;16.07;76.92;99557.72;21019988;28;20452;-71
2021/10/02 18:22:07;;;;;;;10.40;6.15;;;;;;;16.06;76.68;99540.16;21082959;28;20634;-71
2021/10/02 18:32:09;;;;;;;14.43;9.52;;;;;;;16.03;77.30;99541.16;21083300;28;20055;-71
2021/10/02 18:42:10;;;;;;;13.00;8.68;;;;;;;15.96;77.53;99529.22;21081525;28;20048;-71
2021/10/02 18:52:12;;;;;;;15.18;9.60;;;;;;;15.95;77.45;99522.22;21083299;28;20408;-71
2021/10/02 19:02:15;;;;;;;13.30;8.82;;;;;;;15.97;77.42;99519.53;21080138;28;20070;-71
2021/10/02 19:12:16;;;;;;;11.88;8.65;;;;;;;16.00;77.82;99519.34;21057286;28;20113;-71
2021/10/02 19:22:18;;;;;;;20.70;15.50;;;;;;;16.02;77.99;99512.22;20995530;28;20052;-71
2021/10/02 19:32:21;;;;;;;11.00;6.63;;;;;;;15.88;78.67;99505.84;20975761;28;20052;-71
2021/10/02 19:42:22;;;;;;;11.85;6.88;;;;;;;15.88;78.87;99502.38;20993577;28;20049;-71
2021/10/02 19:52:27;;;;;;;11.07;7.07;;;;;;;15.74;79.58;99478.47;20993346;28;20128;-70
2021/10/02 20:02:29;;;;;;;10.38;7.10;;;;;;;15.73;80.01;99482.03;20991235;28;20052;-70
2021/10/02 20:12:31;;;;;;;11.43;7.32;;;;;;;15.72;79.94;99470.63;21008037;28;20544;-71
2021/10/02 20:22:33;;;;;;;14.90;8.15;;;;;;;15.84;79.40;99463.84;20988188;28;20044;-71
2021/10/02 20:32:35;;;;;;;12.63;8.20;;;;;;;15.83;79.52;99443.69;20989292;28;20048;-71
2021/10/02 20:42:38;;;;;;;19.35;13.90;;;;;;;15.81;80.07;99421.78;20989417;28;20048;-71
2021/10/02 20:52:41;;;;;;;15.32;11.15;;;;;;;15.75;81.26;99419.47;21058735;28;20048;-71
2021/10/02 21:02:46;;;;;;;14.85;9.70;;;;;;;15.65;81.58;99409.38;21085899;28;20464;-71
2021/10/02 21:12:48;;;;;;;16.30;9.35;;;;;;;15.45;82.73;99417.47;21067377;28;20059;-71
2021/10/02 21:22:50;;;;;;;13.32;9.45;;;;;;;15.29;83.50;99421.81;20985872;28;20078;-71
2021/10/02 21:32:52;;;;;;;14.43;8.73;;;;;;;15.08;84.52;99435.13;20983125;28;20044;-71
2021/10/02 21:42:54;;;;;;;13.32;8.52;;;;;;;14.96;84.63;99433.13;20967470;28;20409;-71
2021/10/02 21:52:58;;;;;;;12.45;7.43;;;;;;;14.96;83.93;99440.19;20984493;28;20148;-72
2021/10/02 22:03:00;;;;;;;11.07;6.97;;;;;;;15.08;82.92;99429.00;20975784;28;20049;-71
2021/10/02 22:13:03;;;;;;;13.43;7.22;;;;;;;15.18;82.19;99429.41;20981499;28;20498;-72
2021/10/02 22:23:05;;;;;;;10.55;6.43;;;;;;;15.19;81.80;99431.09;20981720;28;20151;-72
2021/10/02 22:33:07;;;;;;;13.77;9.23;;;;;;;15.13;81.29;99422.56;20975600;28;20044;-72
2021/10/02 22:43:09;;;;;;;14.32;9.48;;;;;;;15.04;82.09;99396.69;20965114;28;20055;-75
2021/10/02 22:53:11;;;;;;;12.20;7.40;;;;;;;14.94;82.25;99411.22;20996184;28;20056;-72
2021/10/02 23:03:13;;;;;;;12.30;6.88;;;;;;;14.90;82.45;99399.16;20995146;28;20040;-72
2021/10/02 23:13:18;;;;;;;11.77;6.88;;;;;;;14.96;82.25;99383.03;20995056;28;20102;-72
2021/10/02 23:23:24;;;;;;;12.83;8.13;;;;;;;15.00;81.95;99383.75;20994369;28;20079;-72
2021/10/02 23:33:27;;;;;;;14.13;8.15;;;;;;;14.96;83.35;99385.69;20993908;28;20494;-72
2021/10/02 23:43:32;;;;;;;12.57;8.15;;;;;;;15.18;80.73;99360.84;20993439;28;20136;-72
2021/10/02 23:53:35;;;;;;;11.30;7.30;;;;;;;15.22;80.39;99354.50;20992017;28;20049;-72
